Time;durP1;ratioP1;P1;durP2;ratioP2;P2;SDS_P1;SDS_P2;PMS_P1;PMS_P2;Temp;Humidity;BMP_temperature;BMP_pressure;BME280_temperature;BME280_humidity;BME280_pressure;Samples;Min_cycle;Max_cycle;Signal;HPM_P1;HPM_P2
2023/05/12 00:00:47;;;;;;;5.32;2.88;;;;;;;10.35;69.31;100196.69;3089459;28;20066;-78
2023/05/12 00:02:19;;;;;;;5.00;2.85;;;;;;;10.35;68.96;100195.81;3089862;28;20069;-77
2023/05/12 00:03:52;;;;;;;7.32;2.80;;;;;;;10.35;69.47;100199.28;3089560;28;20068;-78
2023/05/12 00:05:24;;;;;;;13.90;4.45;;;;;;;10.33;69.08;100201.09;3090177;28;20812;-78
2023/05/12 00:06:56;;;;;;;5.57;2.92;;;;;;;10.32;69.37;100207.19;3089969;28;20058;-79
2023/05/12 00:08:26;;;;;;;4.63;2.72;;;;;;;10.30;69.34;100196.00;3088646;28;20062;-78
2023/05/12 00:09:58;;;;;;;6.97;3.05;;;;;;;10.32;69.42;100203.72;3089834;28;20153;-78
2023/05/12 00:11:29;;;;;;;5.20;2.85;;;;;;;10.28;69.53;100191.75;3089915;28;20050;-78
2023/05/12 00:13:02;;;;;;;6.25;2.80;;;;;;;10.29;69.37;100201.25;3089358;28;20486;-77
2023/05/12 00:14:34;;;;;;;8.53;3.10;;;;;;;10.27;69.57;100200.47;3089936;28;20090;-77
2023/05/12 00:16:08;;;;;;;8.52;3.38;;;;;;;10.25;69.80;100203.09;3089724;28;20143;-80
2023/05/12 00:17:41;;;;;;;7.78;3.15;;;;;;;10.24;69.69;100204.84;3089723;28;20058;-80
2023/05/12 00:19:12;;;;;;;5.63;2.78;;;;;;;10.22;69.60;100198.84;3089606;28;20173;-80
2023/05/12 00:20:44;;;;;;;6.57;3.33;;;;;;;10.11;70.00;100180.16;3089486;28;20150;-80
2023/05/12 00:22:16;;;;;;;7.97;2.60;;;;;;;10.20;69.99;100200.66;3090097;28;20050;-80
2023/05/12 00:23:48;;;;;;;6.53;3.20;;;;;;;10.18;69.73;100196.44;3088900;28;20107;-80
2023/05/12 00:25:20;;;;;;;5.97;3.00;;;;;;;10.22;70.05;100195.41;3089816;28;20053;-81
2023/05/12 00:26:52;;;;;;;6.72;3.38;;;;;;;10.17;69.62;100179.09;3087097;28;20104;-75
2023/05/12 00:28:24;;;;;;;7.18;2.78;;;;;;;10.23;69.74;100200.56;3089388;28;20142;-77
2023/05/12 00:29:55;;;;;;;6.05;3.30;;;;;;;10.17;70.09;100187.75;3093693;28;20057;-79
2023/05/12 00:31:29;;;;;;;8.98;3.65;;;;;;;10.21;70.13;100194.56;3089574;28;20058;-79
2023/05/12 00:33:01;;;;;;;6.68;3.40;;;;;;;10.20;70.17;100194.59;3089770;28;20058;-79
2023/05/12 00:34:32;;;;;;;8.20;3.53;;;;;;;10.20;70.26;100192.00;3089497;28;20446;-78
2023/05/12 00:36:05;;;;;;;5.53;3.30;;;;;;;10.16;70.53;100186.06;3090365;28;20198;-79
2023/05/12 00:37:36;;;;;;;6.90;3.67;;;;;;;10.19;70.29;100193.75;3090256;28;20108;-80
2023/05/12 00:39:07;;;;;;;6.47;3.08;;;;;;;10.15;70.16;100191.34;3089381;28;20555;-79
2023/05/12 00:40:40;;;;;;;5.78;2.95;;;;;;;10.18;70.32;100194.66;3089611;28;20521;-78
2023/05/12 00:42:12;;;;;;;9.02;3.92;;;;;;;10.17;70.23;100197.31;3089823;28;20062;-80
2023/05/12 00:43:44;;;;;;;9.38;3.42;;;;;;;10.14;70.55;100200.88;3089414;28;20051;-81
2023/05/12 00:45:16;;;;;;;7.55;3.50;;;;;;;10.15;70.47;100197.38;3089251;28;20054;-80
2023/05/12 00:46:50;;;;;;;7.60;3.20;;;;;;;10.00;70.62;100167.56;3089193;28;20054;-80
2023/05/12 00:48:22;;;;;;;7.28;2.90;;;;;;;10.19;70.59;100196.34;3089671;28;20415;-81
2023/05/12 00:49:53;;;;;;;8.07;3.05;;;;;;;10.21;70.17;100196.31;3106328;28;20073;-80
2023/05/12 00:51:26;;;;;;;6.78;3.25;;;;;;;10.25;70.12;100201.31;3089118;28;20147;-80
2023/05/12 00:52:58;;;;;;;8.80;3.42;;;;;;;10.26;70.24;100204.78;3089335;28;20072;-80
2023/05/12 00:54:31;;;;;;;6.70;4.32;;;;;;;10.26;70.24;100207.38;3089415;28;20055;-79
2023/05/12 00:56:04;;;;;;;5.40;3.20;;;;;;;10.21;70.32;100197.16;3089818;28;20054;-79
2023/05/12 00:57:36;;;;;;;8.68;3.42;;;;;;;10.25;70.19;100209.13;3089336;28;20323;-80
2023/05/12 00:59:08;;;;;;;6.80;3.65;;;;;;;10.23;70.33;100200.56;3089579;28;20065;-79
2023/05/12 01:00:39;;;;;;;8.40;3.22;;;;;;;10.22;70.45;100208.41;3088679;28;20152;-79
2023/05/12 01:02:13;;;;;;;7.00;3.40;;;;;;;10.21;70.22;100211.94;3089756;28;20157;-78
2023/05/12 01:03:45;;;;;;;6.63;3.50;;;;;;;10.18;70.33;100209.44;3088976;28;20466;-79
2023/05/12 01:05:17;;;;;;;6.20;3.53;;;;;;;10.18;70.44;100212.88;3101279;28;20236;-79
2023/05/12 01:06:54;;;;;;;6.32;3.20;;;;;;;10.11;70.38;100198.38;3090585;28;20431;-78
2023/05/12 01:08:27;;;;;;;7.05;2.92;;;;;;;10.19;70.12;100211.97;3089138;28;20212;-78
2023/05/12 01:09:58;;;;;;;7.80;4.05;;;;;;;10.21;70.30;100206.72;3089588;28;20088;-80
2023/05/12 01:11:30;;;;;;;7.40;4.18;;;;;;;10.24;70.20;100209.22;3089606;28;20184;-80
2023/05/12 01:13:02;;;;;;;5.82;3.80;;;;;;;10.21;70.04;100211.94;3089632;28;20062;-80
2023/05/12 01:14:34;;;;;;;7.05;3.60;;;;;;;10.21;70.35;100207.56;3089045;28;20419;-78
2023/05/12 01:16:09;;;;;;;8.52;3.30;;;;;;;10.02;70.05;100175.31;3089539;28;20082;-80
2023/05/12 01:17:47;;;;;;;6.10;3.30;;;;;;;10.25;70.21;100208.28;3089375;28;20061;-81
2023/05/12 01:19:33;;;;;;;6.10;3.50;;;;;;;10.23;70.14;100205.75;3083953;28;20050;-81
2023/05/12 01:21:06;;;;;;;8.27;3.85;;;;;;;10.05;70.20;100177.78;3088479;28;20519;-78
2023/05/12 01:22:39;;;;;;;6.63;3.30;;;;;;;10.22;70.39;100208.41;3088844;28;20507;-78
2023/05/12 01:24:13;;;;;;;7.10;3.50;;;;;;;10.18;70.37;100202.47;3089028;28;20045;-77
2023/05/12 01:25:47;;;;;;;7.97;3.78;;;;;;;10.22;70.26;100208.41;3089212;28;20096;-78
2023/05/12 01:27:20;;;;;;;5.90;3.17;;;;;;;10.22;70.28;100208.41;3087386;28;20058;-78
2023/05/12 01:28:54;;;;;;;4.32;2.92;;;;;;;10.22;70.34;100208.41;3088973;28;20058;-77
2023/05/12 01:30:27;;;;;;;7.20;3.25;;;;;;;10.18;70.37;100202.47;3089193;28;20088;-78
2023/05/12 01:31:58;;;;;;;6.43;2.95;;;;;;;10.18;70.45;100201.63;3089288;28;20828;-78
2023/05/12 01:33:31;;;;;;;7.10;3.13;;;;;;;10.20;70.12;100205.00;3088642;28;20058;-77
2023/05/12 01:35:02;;;;;;;9.60;3.60;;;;;;;10.19;70.11;100201.56;3090520;28;20489;-77
2023/05/12 01:36:33;;;;;;;5.47;2.85;;;;;;;10.09;70.24;100191.56;3093848;28;20202;-77
2023/05/12 01:38:05;;;;;;;8.60;3.78;;;;;;;10.10;70.64;100198.44;3093980;28;20058;-79
2023/05/12 01:39:36;;;;;;;8.10;3.20;;;;;;;10.06;70.28;100202.94;3093821;28;20050;-77
2023/05/12 01:41:08;;;;;;;9.38;3.35;;;;;;;10.08;70.81;100200.25;3094010;28;20384;-77
2023/05/12 01:42:41;;;;;;;6.38;2.92;;;;;;;10.07;70.43;100201.16;3094078;28;20058;-77
2023/05/12 01:44:12;;;;;;;7.15;3.53;;;;;;;10.10;70.61;100203.66;3094544;28;20046;-77
2023/05/12 01:45:44;;;;;;;6.28;3.10;;;;;;;10.12;70.76;100204.47;3093307;28;20132;-76
2023/05/12 01:47:15;;;;;;;6.00;2.97;;;;;;;10.13;70.57;100204.38;3093688;28;20446;-78
2023/05/12 01:48:47;;;;;;;5.72;3.30;;;;;;;10.16;70.73;100203.44;3094006;28;20137;-77
2023/05/12 01:50:18;;;;;;;6.60;3.78;;;;;;;10.15;70.44;100193.94;3105583;28;20053;-78
2023/05/12 01:51:50;;;;;;;7.15;3.65;;;;;;;10.19;70.59;100204.16;3118232;28;20344;-78
2023/05/12 01:53:22;;;;;;;6.30;3.22;;;;;;;10.16;70.57;100198.22;3117726;28;20050;-77
2023/05/12 01:54:53;;;;;;;11.57;3.60;;;;;;;9.77;70.44;100134.59;3093841;28;20485;-78
2023/05/12 01:56:25;;;;;;;5.57;3.10;;;;;;;10.16;70.52;100200.81;3093424;28;20050;-77
2023/05/12 01:57:58;;;;;;;10.90;3.28;;;;;;;10.16;70.06;100193.88;3094436;28;20061;-79
2023/05/12 01:59:30;;;;;;;5.63;2.92;;;;;;;10.17;70.37;100194.72;3093614;28;20050;-78
2023/05/12 02:01:01;;;;;;;8.13;3.60;;;;;;;10.11;70.49;100200.13;3093405;28;20065;-78
2023/05/12 02:02:33;;;;;;;5.95;3.33;;;;;;;10.17;70.47;100203.34;3093551;28;20059;-77
2023/05/12 02:04:07;;;;;;;8.88;3.35;;;;;;;10.17;70.36;100199.91;3094061;28;20061;-77
2023/05/12 02:05:39;;;;;;;8.73;3.17;;;;;;;10.15;70.21;100197.38;3093515;28;20529;-76
2023/05/12 02:07:11;;;;;;;6.30;3.20;;;;;;;10.16;70.16;100196.47;3092982;28;20543;-77
2023/05/12 02:08:41;;;;;;;6.93;3.15;;;;;;;10.14;70.08;100192.22;3093950;28;20082;-78
2023/05/12 02:10:13;;;;;;;5.97;3.10;;;;;;;10.17;70.43;100199.91;3093790;28;20046;-78
2023/05/12 02:11:44;;;;;;;6.25;3.20;;;;;;;10.12;70.05;100188.84;3092796;28;20137;-78
2023/05/12 02:13:17;;;;;;;4.07;2.72;;;;;;;10.00;70.25;100177.97;3093699;28;20408;-78
2023/05/12 02:14:49;;;;;;;;;;;;;;;10.04;70.18;100196.91;3093161;28;20050;-78
2023/05/12 02:16:21;;;;;;;6.75;2.47;;;;;;;10.02;70.11;100193.53;3093969;28;19999;-78
2023/05/12 02:17:54;;;;;;;7.65;2.95;;;;;;;10.05;70.45;100196.00;3093669;28;20058;-79
2023/05/12 02:19:26;;;;;;;4.88;2.47;;;;;;;10.06;70.08;100199.44;3093668;28;20054;-80
2023/05/12 02:20:56;;;;;;;6.63;2.70;;;;;;;10.06;70.38;100189.91;3093341;28;20099;-80
2023/05/12 02:22:28;;;;;;;5.47;3.05;;;;;;;10.11;70.34;100198.38;3093396;28;20050;-80
2023/05/12 02:24:00;;;;;;;5.60;3.03;;;;;;;10.08;70.02;100193.28;3093861;28;20126;-80
2023/05/12 02:25:32;;;;;;;5.18;3.20;;;;;;;10.14;70.05;100200.03;3093383;28;20050;-80
2023/05/12 02:27:04;;;;;;;5.65;2.97;;;;;;;10.12;70.30;100192.28;3091637;28;20061;-80
2023/05/12 02:28:37;;;;;;;3.45;2.65;;;;;;;10.09;70.34;100183.75;3093534;28;20055;-80
2023/05/12 02:30:09;;;;;;;6.82;3.03;;;;;;;10.11;70.29;100187.97;3092964;28;20054;-80
2023/05/12 02:31:42;;;;;;;7.32;3.83;;;;;;;9.93;70.06;100154.84;3095974;28;20123;-78
2023/05/12 02:33:14;;;;;;;9.32;3.53;;;;;;;10.16;70.36;100188.66;3097492;28;20051;-76
2023/05/12 02:34:44;;;;;;;5.45;2.83;;;;;;;10.15;70.14;100191.34;3097861;28;20054;-79
2023/05/12 02:36:16;;;;;;;5.63;2.85;;;;;;;10.21;70.11;100193.72;3097547;28;20050;-79
2023/05/12 02:37:47;;;;;;;10.00;2.97;;;;;;;10.19;70.07;100185.94;3097705;28;20054;-79
2023/05/12 02:39:19;;;;;;;5.85;3.10;;;;;;;10.25;70.30;100193.53;3097965;28;20052;-81
2023/05/12 02:40:50;;;;;;;4.97;2.65;;;;;;;10.23;70.12;100184.94;3097380;28;20138;-78
2023/05/12 02:42:22;;;;;;;5.50;2.90;;;;;;;10.30;69.93;100200.34;3098859;28;20050;-80
2023/05/12 02:43:55;;;;;;;7.38;3.33;;;;;;;10.29;70.00;100190.81;3099128;28;20050;-80
2023/05/12 02:45:26;;;;;;;5.35;2.70;;;;;;;10.31;70.07;100189.03;3099054;28;20453;-80
2023/05/12 02:46:58;;;;;;;10.07;4.03;;;;;;;10.29;69.98;100191.66;3099013;28;20054;-80
2023/05/12 02:48:28;;;;;;;8.68;3.70;;;;;;;10.34;69.79;100197.56;3098637;28;20420;-80
2023/05/12 02:50:00;;;;;;;7.13;2.92;;;;;;;10.35;69.81;100199.28;3113933;28;20135;-80
2023/05/12 02:51:32;;;;;;;6.60;3.13;;;;;;;10.36;69.61;100200.13;3098462;28;20054;-80
2023/05/12 02:53:03;;;;;;;10.63;2.80;;;;;;;10.36;69.81;100200.97;3100149;28;20053;-80
2023/05/12 02:54:35;;;;;;;6.38;3.17;;;;;;;10.31;69.63;100187.25;3097842;28;20164;-81
2023/05/12 02:56:07;;;;;;;5.80;2.85;;;;;;;10.31;69.68;100187.25;3092037;28;20065;-81
2023/05/12 02:57:38;;;;;;;6.22;3.10;;;;;;;10.33;69.96;100192.44;3097855;28;20058;-78
2023/05/12 02:59:12;;;;;;;4.78;2.88;;;;;;;10.34;69.79;100200.16;3097226;28;20058;-80
2023/05/12 03:00:42;;;;;;;;;;;;;;;10.28;69.69;100203.00;3097409;28;20058;-81
2023/05/12 03:02:14;;;;;;;9.98;3.13;;;;;;;10.28;70.00;100204.75;3097563;28;20339;-80
2023/05/12 03:03:46;;;;;;;8.85;3.20;;;;;;;10.27;69.81;100211.72;3094156;28;20054;-80
2023/05/12 03:05:18;;;;;;;7.55;3.08;;;;;;;10.24;70.21;100206.59;3097320;28;20116;-80
2023/05/12 03:06:50;;;;;;;10.15;3.90;;;;;;;10.24;69.98;100204.00;3096804;28;20042;-80
2023/05/12 03:08:22;;;;;;;10.80;3.70;;;;;;;10.22;69.99;100213.59;3097516;28;20057;-80
2023/05/12 03:09:53;;;;;;;6.75;3.47;;;;;;;10.20;70.28;100211.09;3097481;28;20339;-79
2023/05/12 03:11:25;;;;;;;7.65;3.17;;;;;;;10.23;70.19;100213.56;3131957;28;20052;-79
2023/05/12 03:12:57;;;;;;;8.38;3.60;;;;;;;10.23;70.14;100215.28;3097141;28;20090;-79
2023/05/12 03:14:30;;;;;;;5.50;2.92;;;;;;;10.21;70.12;100212.78;3096806;28;20507;-80
2023/05/12 03:16:02;;;;;;;9.82;3.60;;;;;;;10.22;70.50;100217.06;3098072;28;20091;-81
2023/05/12 03:17:33;;;;;;;7.22;3.70;;;;;;;10.21;70.45;100209.31;3097128;28;20058;-81
2023/05/12 03:19:05;;;;;;;12.20;3.33;;;;;;;10.24;70.07;100223.06;3097412;28;20534;-77
2023/05/12 03:20:36;;;;;;;8.55;3.60;;;;;;;10.23;70.05;100221.38;3096872;28;20058;-77
2023/05/12 03:22:08;;;;;;;7.80;3.33;;;;;;;9.95;70.11;100177.28;3097561;28;20057;-76
2023/05/12 03:23:40;;;;;;;9.32;2.90;;;;;;;10.23;70.34;100223.09;3096685;28;20077;-77
2023/05/12 03:25:12;;;;;;;8.98;4.00;;;;;;;10.17;70.24;100213.78;3097330;28;20053;-77
2023/05/12 03:26:43;;;;;;;7.00;3.58;;;;;;;10.27;70.07;100226.50;3095007;28;20443;-77
2023/05/12 03:28:15;;;;;;;8.35;4.22;;;;;;;10.12;69.84;100207.91;3097225;28;20061;-77
2023/05/12 03:29:47;;;;;;;10.48;3.03;;;;;;;10.28;69.70;100225.59;3097340;28;20104;-76
2023/05/12 03:31:19;;;;;;;5.82;3.15;;;;;;;10.22;69.73;100218.81;3097336;28;20128;-77
2023/05/12 03:32:50;;;;;;;7.95;3.30;;;;;;;10.26;69.70;100233.41;3097332;28;20051;-76
2023/05/12 03:34:22;;;;;;;7.30;2.88;;;;;;;10.25;70.01;100229.97;3097297;28;20116;-76
2023/05/12 03:35:55;;;;;;;8.77;3.75;;;;;;;10.27;70.08;100232.56;3096840;28;20051;-76
2023/05/12 03:37:27;;;;;;;9.23;4.22;;;;;;;10.28;69.80;100223.81;3097231;28;20082;-80
2023/05/12 03:38:59;;;;;;;12.98;3.75;;;;;;;10.28;69.80;100226.44;3096621;28;20054;-80
2023/05/12 03:40:31;;;;;;;6.13;3.40;;;;;;;10.34;69.92;100235.78;3098555;28;20503;-79
2023/05/12 03:42:02;;;;;;;6.20;3.38;;;;;;;10.31;69.64;100223.72;3094901;28;20050;-78
2023/05/12 03:43:34;;;;;;;9.85;3.92;;;;;;;10.38;69.83;100239.94;3090518;28;20058;-79
2023/05/12 03:45:09;;;;;;;7.05;3.90;;;;;;;10.39;69.90;100239.06;3089708;28;20046;-79
2023/05/12 03:46:41;;;;;;;11.25;3.78;;;;;;;10.39;69.89;100241.66;3080206;28;20063;-79
2023/05/12 03:48:13;;;;;;;8.60;4.57;;;;;;;10.42;69.70;100236.34;3091768;28;20057;-79
2023/05/12 03:49:45;;;;;;;23.38;9.07;;;;;;;10.40;69.62;100232.94;3126106;28;20133;-77
2023/05/12 03:51:17;;;;;;;21.45;12.05;;;;;;;10.44;69.47;100237.09;3090120;28;20107;-78
2023/05/12 03:52:49;;;;;;;24.35;14.15;;;;;;;10.28;69.41;100209.97;3090603;28;20066;-78
2023/05/12 03:54:20;;;;;;;26.08;14.70;;;;;;;10.48;69.63;100249.13;3089764;28;20047;-78
2023/05/12 03:55:52;;;;;;;24.23;12.98;;;;;;;10.52;69.46;100249.84;3090362;28;20574;-78
2023/05/12 03:57:23;;;;;;;19.60;11.13;;;;;;;10.40;69.59;100225.97;3089977;28;20061;-80
2023/05/12 03:58:55;;;;;;;14.27;7.88;;;;;;;10.53;69.44;100252.41;3089733;28;20061;-80
2023/05/12 04:00:28;;;;;;;14.95;7.93;;;;;;;10.55;69.55;100247.13;3090115;28;20062;-77
2023/05/12 04:01:58;;;;;;;;;;;;;;;10.47;69.28;100256.09;3096530;28;20050;-80
2023/05/12 04:03:30;;;;;;;10.18;5.60;;;;;;;10.45;69.43;100246.63;3089209;28;19952;-79
2023/05/12 04:05:02;;;;;;;9.55;5.32;;;;;;;10.51;69.58;100255.97;3089355;28;20054;-79
2023/05/12 04:06:35;;;;;;;10.98;4.05;;;;;;;10.43;69.32;100238.88;3130807;28;20052;-77
2023/05/12 04:08:07;;;;;;;8.48;3.60;;;;;;;10.54;69.12;100256.69;3090581;28;20090;-79
2023/05/12 04:09:39;;;;;;;8.68;4.50;;;;;;;10.50;69.15;100242.13;3129718;28;20056;-77
2023/05/12 04:11:11;;;;;;;9.50;3.50;;;;;;;10.57;69.07;100253.13;3120424;28;20058;-80
2023/05/12 04:12:43;;;;;;;5.82;3.30;;;;;;;10.60;69.38;100258.22;3123062;28;20595;-80
2023/05/12 04:14:13;;;;;;;5.90;3.30;;;;;;;10.62;69.37;100259.03;3125153;28;20046;-77
2023/05/12 04:15:48;;;;;;;10.38;3.28;;;;;;;10.54;69.31;100243.69;3114068;28;20048;-77
2023/05/12 04:17:19;;;;;;;5.53;3.50;;;;;;;10.66;69.06;100260.59;3131001;28;20057;-78
2023/05/12 04:18:50;;;;;;;7.88;3.40;;;;;;;10.68;69.00;100258.78;3090232;28;20050;-78
2023/05/12 04:20:22;;;;;;;5.03;3.13;;;;;;;10.66;68.89;100250.19;3089313;28;20062;-78
2023/05/12 04:21:54;;;;;;;10.88;3.65;;;;;;;10.71;68.85;100250.88;3089610;28;20187;-76
2023/05/12 04:23:26;;;;;;;8.27;3.10;;;;;;;10.72;69.02;100254.31;3090253;28;20145;-79
2023/05/12 04:24:58;;;;;;;8.93;3.35;;;;;;;10.70;69.09;100250.00;3089483;28;20051;-79
2023/05/12 04:26:30;;;;;;;7.13;3.38;;;;;;;10.76;68.92;100256.72;3080731;28;20058;-79
2023/05/12 04:28:02;;;;;;;5.80;3.22;;;;;;;10.80;69.18;100257.47;3089992;28;20058;-80
2023/05/12 04:29:35;;;;;;;7.25;4.05;;;;;;;10.84;69.23;100248.63;3078121;28;20467;-75
2023/05/12 04:31:08;;;;;;;9.82;3.92;;;;;;;10.85;69.07;100239.88;3082721;28;20529;-77
2023/05/12 04:32:40;;;;;;;6.35;3.10;;;;;;;10.90;68.72;100245.78;3089426;28;20054;-79
2023/05/12 04:34:12;;;;;;;13.88;3.60;;;;;;;10.89;68.78;100231.06;3089818;28;20497;-79
2023/05/12 04:35:44;;;;;;;6.85;2.78;;;;;;;10.93;68.42;100240.44;3098796;28;20565;-78
2023/05/12 04:37:15;;;;;;;9.10;3.80;;;;;;;10.93;68.44;100243.03;3089115;28;20833;-78
2023/05/12 04:38:47;;;;;;;9.65;4.18;;;;;;;10.94;68.34;100239.53;3089597;28;20054;-80
2023/05/12 04:40:19;;;;;;;8.95;3.20;;;;;;;10.95;68.00;100245.59;3094597;28;20066;-74
2023/05/12 04:41:51;;;;;;;7.68;3.40;;;;;;;10.94;68.13;100239.53;3094937;28;20046;-76
2023/05/12 04:43:23;;;;;;;31.88;18.58;;;;;;;10.83;68.21;100223.50;3091910;28;20081;-76
2023/05/12 04:44:55;;;;;;;133.52;63.72;;;;;;;10.92;68.12;100242.19;3090966;28;20069;-78
2023/05/12 04:46:28;;;;;;;60.40;32.55;;;;;;;10.93;68.36;100238.69;3091365;28;20086;-73
2023/05/12 04:48:00;;;;;;;12.13;4.18;;;;;;;10.92;68.64;100239.59;3092399;28;20046;-69
2023/05/12 04:49:32;;;;;;;9.80;3.20;;;;;;;10.83;68.45;100226.94;3117116;28;20165;-74
2023/05/12 04:51:11;;;;;;;20.75;8.65;;;;;;;10.74;68.49;100208.19;3086639;28;20059;-75
2023/05/12 04:52:43;;;;;;;15.25;8.27;;;;;;;10.96;68.43;100244.69;3089007;28;20163;-73
2023/05/12 04:54:15;;;;;;;28.98;12.63;;;;;;;10.97;68.63;100239.41;3089482;28;20062;-75
2023/05/12 04:55:46;;;;;;;23.85;9.55;;;;;;;10.99;68.52;100248.00;3089201;28;20149;-77
2023/05/12 04:57:18;;;;;;;6.85;3.25;;;;;;;10.99;68.41;100242.81;3088346;28;20700;-75
2023/05/12 04:58:50;;;;;;;11.35;3.40;;;;;;;11.04;68.36;100251.28;3089113;28;20552;-76
2023/05/12 05:00:22;;;;;;;4.68;2.58;;;;;;;11.01;68.17;100245.34;3088912;28;20491;-74
2023/05/12 05:01:56;;;;;;;9.40;3.55;;;;;;;11.01;68.17;100247.97;3089248;28;20046;-75
2023/05/12 05:03:27;;;;;;;5.45;3.00;;;;;;;11.03;67.63;100254.81;3088805;28;20082;-69
2023/05/12 05:04:59;;;;;;;11.73;3.85;;;;;;;11.02;68.00;100253.09;3088809;28;20050;-77
2023/05/12 05:06:31;;;;;;;7.60;2.70;;;;;;;11.01;67.52;100251.41;3089452;28;20138;-77
2023/05/12 05:08:03;;;;;;;5.38;2.50;;;;;;;10.99;67.87;100255.81;3089240;28;20056;-79
2023/05/12 05:09:34;;;;;;;5.87;2.77;;;;;;;10.99;67.92;100257.59;3089235;28;20442;-75
2023/05/12 05:11:06;;;;;;;7.25;3.20;;;;;;;10.96;67.75;100252.50;3088899;28;20381;-72
2023/05/12 05:12:38;;;;;;;7.40;2.97;;;;;;;10.99;67.74;100250.63;3088788;28;20054;-70
2023/05/12 05:14:11;;;;;;;5.32;3.05;;;;;;;11.01;67.66;100250.56;3088904;28;20054;-73
2023/05/12 05:15:50;;;;;;;7.93;2.65;;;;;;;11.01;67.89;100248.81;3108859;28;20046;-74
2023/05/12 05:17:23;;;;;;;5.85;3.30;;;;;;;11.01;68.08;100243.59;3133143;28;20054;-73
2023/05/12 05:18:55;;;;;;;;;;;;;;;10.98;68.16;100254.16;3089040;28;20054;-70
2023/05/12 05:20:27;;;;;;;7.90;2.92;;;;;;;10.98;68.26;100256.75;3088876;28;19979;-75
2023/05/12 05:21:59;;;;;;;8.60;3.28;;;;;;;11.00;68.06;100254.06;3089092;28;20500;-70
2023/05/12 05:23:31;;;;;;;6.97;3.22;;;;;;;11.00;68.33;100249.69;3088843;28;20081;-77
2023/05/12 05:25:03;;;;;;;8.40;3.63;;;;;;;11.04;68.04;100256.50;3088739;28;20054;-70
2023/05/12 05:26:36;;;;;;;8.20;4.60;;;;;;;10.80;68.30;100206.22;3076619;28;20369;-73
2023/05/12 05:28:08;;;;;;;9.82;3.60;;;;;;;11.10;68.02;100253.66;3088795;28;20160;-70
2023/05/12 05:29:40;;;;;;;11.90;3.53;;;;;;;11.11;68.36;100257.09;3088673;28;20599;-71
2023/05/12 05:31:15;;;;;;;11.65;3.50;;;;;;;11.16;68.23;100261.22;3088471;28;20054;-73
2023/05/12 05:32:48;;;;;;;9.88;3.22;;;;;;;11.20;67.85;100261.09;3088194;28;20107;-70
2023/05/12 05:34:20;;;;;;;;;;;;;;;11.13;68.02;100261.34;3089290;28;20077;-78
2023/05/12 05:35:52;;;;;;;8.73;3.42;;;;;;;11.14;67.92;100256.97;3087490;28;19926;-76
2023/05/12 05:37:26;;;;;;;10.25;3.40;;;;;;;11.20;67.84;100263.69;3087513;28;20077;-73
2023/05/12 05:38:58;;;;;;;9.00;3.47;;;;;;;11.21;67.70;100263.66;3088844;28;20060;-77
2023/05/12 05:40:30;;;;;;;14.13;3.67;;;;;;;11.22;67.59;100267.94;3088708;28;20145;-75
2023/05/12 05:42:02;;;;;;;7.55;3.80;;;;;;;11.26;67.98;100271.28;3088538;28;20588;-78
2023/05/12 05:43:34;;;;;;;7.65;3.63;;;;;;;11.29;67.65;100266.78;3088616;28;20578;-79
2023/05/12 05:45:07;;;;;;;8.57;4.15;;;;;;;11.29;67.67;100258.97;3090360;28;20050;-80
2023/05/12 05:46:40;;;;;;;9.18;3.38;;;;;;;11.36;67.85;100265.63;3093410;28;20084;-75
2023/05/12 05:48:13;;;;;;;6.82;4.22;;;;;;;11.41;67.65;100265.44;3093486;28;20049;-78
2023/05/12 05:49:45;;;;;;;;;;;;;;;11.38;67.81;100262.94;3094851;28;20362;-74
2023/05/12 05:51:17;;;;;;;6.45;3.95;;;;;;;11.43;67.84;100261.00;3093480;28;19933;-78
2023/05/12 05:52:53;;;;;;;11.48;5.00;;;;;;;11.52;67.62;100254.56;3093820;28;20061;-73
2023/05/12 05:54:25;;;;;;;8.88;4.40;;;;;;;11.57;67.53;100255.22;3093766;28;20046;-74
2023/05/12 05:55:57;;;;;;;12.60;5.95;;;;;;;11.63;67.26;100254.97;3093171;28;20095;-71
2023/05/12 05:57:30;;;;;;;10.73;4.88;;;;;;;11.66;67.37;100259.22;3104474;28;20054;-78
2023/05/12 05:59:03;;;;;;;8.23;4.45;;;;;;;11.72;67.10;100261.56;3093487;28;20525;-81
2023/05/12 06:00:35;;;;;;;10.70;4.95;;;;;;;11.79;67.17;100260.38;3093487;28;20069;-77
2023/05/12 06:02:07;;;;;;;12.23;4.55;;;;;;;11.88;66.76;100264.38;3093837;28;20462;-76
2023/05/12 06:03:41;;;;;;;9.43;4.30;;;;;;;11.95;66.32;100263.19;3092754;28;20062;-76
2023/05/12 06:05:13;;;;;;;6.80;4.05;;;;;;;12.02;66.32;100268.09;3093720;28;20140;-73
2023/05/12 06:06:45;;;;;;;7.20;3.80;;;;;;;12.07;65.50;100270.50;3092306;28;20054;-76
2023/05/12 06:08:17;;;;;;;9.80;3.67;;;;;;;12.06;65.09;100267.03;3093883;28;20505;-76
2023/05/12 06:09:49;;;;;;;10.82;4.13;;;;;;;12.13;64.74;100277.22;3093587;28;20133;-73
2023/05/12 06:11:21;;;;;;;9.70;4.07;;;;;;;12.13;64.72;100279.84;3093456;28;20050;-77
2023/05/12 06:12:53;;;;;;;11.55;3.35;;;;;;;11.98;64.38;100256.09;3093209;28;20161;-76
2023/05/12 06:14:25;;;;;;;9.63;3.53;;;;;;;12.17;64.52;100279.63;3093687;28;20096;-78
2023/05/12 06:15:57;;;;;;;6.82;3.00;;;;;;;12.23;64.21;100275.91;3093020;28;20431;-77
2023/05/12 06:17:29;;;;;;;8.55;2.97;;;;;;;12.27;64.32;100283.53;3094004;28;20057;-74
2023/05/12 06:19:03;;;;;;;10.55;3.80;;;;;;;12.37;64.19;100283.13;3092649;28;20086;-71
2023/05/12 06:20:34;;;;;;;;;;;;;;;12.39;64.24;100282.09;3093918;28;20464;-74
2023/05/12 06:22:06;;;;;;;5.72;3.28;;;;;;;12.48;64.21;100273.88;3094065;28;19926;-76
2023/05/12 06:23:38;;;;;;;5.95;2.85;;;;;;;12.51;63.69;100275.50;3093328;28;20051;-76
2023/05/12 06:25:10;;;;;;;9.02;3.42;;;;;;;12.68;63.88;100282.56;3093409;28;20510;-75
2023/05/12 06:26:42;;;;;;;6.07;3.23;;;;;;;12.73;63.75;100272.75;3090156;28;20457;-74
2023/05/12 06:28:14;;;;;;;8.25;3.05;;;;;;;12.97;63.64;100289.06;3088737;28;20325;-75
2023/05/12 06:29:46;;;;;;;8.40;3.00;;;;;;;13.12;63.38;100284.84;3096424;28;20062;-72
2023/05/12 06:31:18;;;;;;;6.93;3.10;;;;;;;13.04;62.71;100242.53;3094684;28;20115;-75
2023/05/12 06:32:50;;;;;;;7.82;3.65;;;;;;;13.35;62.54;100281.16;3093175;28;20054;-75
2023/05/12 06:34:24;;;;;;;9.75;3.80;;;;;;;13.40;62.19;100272.19;3093649;28;20202;-74
2023/05/12 06:40:40;;;;;;;11.85;4.35;;;;;;;13.47;61.17;100282.34;3126420;28;20314;-74
2023/05/12 06:42:48;;;;;;;;;;;;;;;;;;;;;
2023/05/12 06:44:21;;;;;;;10.77;3.80;;;;;;;13.52;61.54;100275.13;3088237;28;20139;-75
2023/05/12 06:45:52;;;;;;;8.43;3.63;;;;;;;13.61;61.24;100279.88;3091872;28;20137;-77
2023/05/12 06:47:24;;;;;;;7.00;3.50;;;;;;;13.75;61.07;100268.69;3093301;28;20060;-76
2023/05/12 06:48:56;;;;;;;9.10;4.25;;;;;;;13.82;60.53;100276.19;3093286;28;20046;-76
2023/05/12 06:50:29;;;;;;;9.68;4.55;;;;;;;13.83;59.86;100267.38;3088549;28;20541;-75
2023/05/12 06:52:01;;;;;;;7.05;4.00;;;;;;;13.85;59.47;100278.63;3093275;28;20061;-78
2023/05/12 06:53:36;;;;;;;9.70;4.38;;;;;;;13.87;59.80;100271.56;3093397;28;20081;-73
2023/05/12 06:55:08;;;;;;;8.20;3.97;;;;;;;14.01;59.88;100265.59;3093274;28;20510;-72
2023/05/12 06:56:41;;;;;;;10.50;3.53;;;;;;;14.15;59.80;100264.88;3092904;28;20119;-74
2023/05/12 06:58:13;;;;;;;9.73;3.30;;;;;;;14.31;59.11;100272.75;3093352;28;20095;-75
2023/05/12 06:59:45;;;;;;;15.02;3.30;;;;;;;14.39;58.33;100269.75;3093129;28;20051;-72
2023/05/12 07:01:17;;;;;;;11.75;4.43;;;;;;;14.46;58.19;100271.09;3094091;28;20050;-71
2023/05/12 07:02:50;;;;;;;9.88;2.83;;;;;;;14.51;57.87;100267.34;3092875;28;20061;-73
2023/05/12 07:04:22;;;;;;;8.40;3.20;;;;;;;14.62;57.20;100258.91;3093293;28;20054;-72
2023/05/12 07:05:55;;;;;;;5.75;2.90;;;;;;;14.66;57.27;100257.78;3092630;28;20050;-72
2023/05/12 07:07:27;;;;;;;;;;;;;;;14.67;56.95;100259.50;3087801;28;20051;-72
2023/05/12 07:08:59;;;;;;;9.82;5.05;;;;;;;14.65;56.19;100253.50;3087160;28;19926;-71
2023/05/12 07:10:32;;;;;;;7.72;3.47;;;;;;;14.69;56.66;100265.50;3087333;28;20517;-70
2023/05/12 07:12:04;;;;;;;11.18;5.63;;;;;;;14.73;56.42;100267.03;3084101;28;20061;-68
2023/05/12 07:13:38;;;;;;;33.95;16.23;;;;;;;14.82;56.32;100263.06;3085857;28;20169;-72
2023/05/12 07:15:11;;;;;;;11.13;6.40;;;;;;;14.87;55.80;100262.78;3087848;28;20055;-73